sensor_id;sensor_type;location;lat;lon;timestamp;P1;durP1;ratioP1;P2;durP2;ratioP2
41687;SDS011;27371;42.686;23.362;2023-04-02T00:00:31;2.20;;;0.50;;
41687;SDS011;27371;42.686;23.362;2023-04-02T00:02:59;0.85;;;0.43;;
41687;SDS011;27371;42.686;23.362;2023-04-02T00:08:18;2.17;;;0.38;;
41687;SDS011;27371;42.686;23.362;2023-04-02T00:10:50;0.73;;;0.40;;
41687;SDS011;27371;42.686;23.362;2023-04-02T00:15:48;1.17;;;0.45;;
41687;SDS011;27371;42.686;23.362;2023-04-02T00:18:19;4.10;;;0.40;;
41687;SDS011;27371;42.686;23.362;2023-04-02T00:20:47;2.83;;;0.40;;
41687;SDS011;27371;42.686;23.362;2023-04-02T00:23:17;1.08;;;0.20;;
41687;SDS011;27371;42.686;23.362;2023-04-02T00:25:43;0.75;;;0.40;;
41687;SDS011;27371;42.686;23.362;2023-04-02T00:28:14;1.10;;;0.40;;
41687;SDS011;27371;42.686;23.362;2023-04-02T00:30:49;1.15;;;0.35;;
41687;SDS011;27371;42.686;23.362;2023-04-02T00:33:18;0.90;;;0.20;;
41687;SDS011;27371;42.686;23.362;2023-04-02T00:35:47;0.77;;;0.28;;
41687;SDS011;27371;42.686;23.362;2023-04-02T00:38:24;0.40;;;0.20;;
41687;SDS011;27371;42.686;23.362;2023-04-02T00:40:53;3.03;;;1.30;;
41687;SDS011;27371;42.686;23.362;2023-04-02T00:43:21;2.38;;;1.35;;
41687;SDS011;27371;42.686;23.362;2023-04-02T00:45:53;3.33;;;1.90;;
41687;SDS011;27371;42.686;23.362;2023-04-02T00:50:55;2.65;;;1.58;;
41687;SDS011;27371;42.686;23.362;2023-04-02T00:53:31;2.22;;;1.10;;
41687;SDS011;27371;42.686;23.362;2023-04-02T00:55:59;2.13;;;1.35;;
41687;SDS011;27371;42.686;23.362;2023-04-02T00:58:34;4.60;;;1.55;;
41687;SDS011;27371;42.686;23.362;2023-04-02T01:01:01;3.40;;;1.40;;
41687;SDS011;27371;42.686;23.362;2023-04-02T01:03:31;1.98;;;1.30;;
41687;SDS011;27371;42.686;23.362;2023-04-02T01:06:12;4.07;;;1.63;;
41687;SDS011;27371;42.686;23.362;2023-04-02T01:14:28;4.30;;;1.80;;
41687;SDS011;27371;42.686;23.362;2023-04-02T01:17:31;2.90;;;1.83;;
41687;SDS011;27371;42.686;23.362;2023-04-02T01:31:16;5.80;;;2.90;;
41687;SDS011;27371;42.686;23.362;2023-04-02T01:33:43;7.22;;;3.35;;
41687;SDS011;27371;42.686;23.362;2023-04-02T01:41:52;3.72;;;2.10;;
41687;SDS011;27371;42.686;23.362;2023-04-02T01:44:28;4.25;;;1.85;;
41687;SDS011;27371;42.686;23.362;2023-04-02T01:47:17;2.50;;;1.65;;
41687;SDS011;27371;42.686;23.362;2023-04-02T01:49:45;3.95;;;2.17;;
41687;SDS011;27371;42.686;23.362;2023-04-02T01:52:15;3.13;;;2.03;;
41687;SDS011;27371;42.686;23.362;2023-04-02T01:54:50;4.30;;;1.98;;
41687;SDS011;27371;42.686;23.362;2023-04-02T01:57:16;2.50;;;1.50;;
41687;SDS011;27371;42.686;23.362;2023-04-02T01:59:41;2.63;;;1.52;;
41687;SDS011;27371;42.686;23.362;2023-04-02T02:02:10;2.95;;;1.05;;
41687;SDS011;27371;42.686;23.362;2023-04-02T02:04:37;3.97;;;1.25;;
41687;SDS011;27371;42.686;23.362;2023-04-02T02:07:04;2.40;;;1.13;;
41687;SDS011;27371;42.686;23.362;2023-04-02T02:09:34;2.35;;;1.15;;
41687;SDS011;27371;42.686;23.362;2023-04-02T02:12:00;3.17;;;1.23;;
41687;SDS011;27371;42.686;23.362;2023-04-02T02:14:28;1.65;;;0.93;;
41687;SDS011;27371;42.686;23.362;2023-04-02T02:16:55;2.38;;;1.10;;
41687;SDS011;27371;42.686;23.362;2023-04-02T02:19:31;2.72;;;1.00;;
41687;SDS011;27371;42.686;23.362;2023-04-02T02:24:52;1.63;;;1.05;;
41687;SDS011;27371;42.686;23.362;2023-04-02T02:32:19;1.98;;;1.00;;
41687;SDS011;27371;42.686;23.362;2023-04-02T02:34:48;2.85;;;1.10;;
41687;SDS011;27371;42.686;23.362;2023-04-02T02:37:24;1.60;;;1.10;;
41687;SDS011;27371;42.686;23.362;2023-04-02T02:39:54;1.80;;;1.10;;
41687;SDS011;27371;42.686;23.362;2023-04-02T02:42:25;6.10;;;1.67;;
41687;SDS011;27371;42.686;23.362;2023-04-02T02:44:55;3.42;;;2.30;;
41687;SDS011;27371;42.686;23.362;2023-04-02T02:47:27;4.00;;;2.60;;
41687;SDS011;27371;42.686;23.362;2023-04-02T02:49:56;7.68;;;2.63;;
41687;SDS011;27371;42.686;23.362;2023-04-02T02:52:27;6.20;;;2.60;;
41687;SDS011;27371;42.686;23.362;2023-04-02T02:54:59;4.20;;;2.60;;
41687;SDS011;27371;42.686;23.362;2023-04-02T02:57:37;4.32;;;2.40;;
41687;SDS011;27371;42.686;23.362;2023-04-02T03:00:06;3.67;;;2.60;;
41687;SDS011;27371;42.686;23.362;2023-04-02T03:02:36;4.05;;;2.83;;
41687;SDS011;27371;42.686;23.362;2023-04-02T03:05:04;5.93;;;2.97;;
41687;SDS011;27371;42.686;23.362;2023-04-02T03:07:31;4.10;;;2.83;;
41687;SDS011;27371;42.686;23.362;2023-04-02T03:15:39;3.95;;;1.85;;
41687;SDS011;27371;42.686;23.362;2023-04-02T03:18:16;4.18;;;2.20;;
41687;SDS011;27371;42.686;23.362;2023-04-02T03:21:19;4.50;;;2.63;;
41687;SDS011;27371;42.686;23.362;2023-04-02T03:23:52;4.10;;;3.10;;
41687;SDS011;27371;42.686;23.362;2023-04-02T03:26:41;5.35;;;3.53;;
41687;SDS011;27371;42.686;23.362;2023-04-02T03:29:17;7.18;;;4.20;;
41687;SDS011;27371;42.686;23.362;2023-04-02T03:31:59;5.78;;;3.65;;
41687;SDS011;27371;42.686;23.362;2023-04-02T03:34:43;7.53;;;4.30;;
41687;SDS011;27371;42.686;23.362;2023-04-02T03:37:21;5.68;;;3.92;;
41687;SDS011;27371;42.686;23.362;2023-04-02T03:42:25;6.10;;;3.33;;
41687;SDS011;27371;42.686;23.362;2023-04-02T03:45:10;6.18;;;4.70;;
41687;SDS011;27371;42.686;23.362;2023-04-02T03:47:46;5.55;;;3.40;;
41687;SDS011;27371;42.686;23.362;2023-04-02T03:50:34;7.07;;;3.53;;
41687;SDS011;27371;42.686;23.362;2023-04-02T03:53:06;4.90;;;3.28;;
41687;SDS011;27371;42.686;23.362;2023-04-02T03:55:34;4.72;;;3.10;;
41687;SDS011;27371;42.686;23.362;2023-04-02T03:58:16;7.38;;;2.70;;
41687;SDS011;27371;42.686;23.362;2023-04-02T04:00:56;6.28;;;3.00;;
41687;SDS011;27371;42.686;23.362;2023-04-02T04:03:30;5.38;;;2.55;;
41687;SDS011;27371;42.686;23.362;2023-04-02T04:11:36;6.90;;;2.55;;
41687;SDS011;27371;42.686;23.362;2023-04-02T04:14:27;4.93;;;2.97;;
41687;SDS011;27371;42.686;23.362;2023-04-02T04:19:43;5.43;;;2.97;;
41687;SDS011;27371;42.686;23.362;2023-04-02T04:22:18;6.65;;;2.75;;
41687;SDS011;27371;42.686;23.362;2023-04-02T04:24:57;5.97;;;2.67;;
41687;SDS011;27371;42.686;23.362;2023-04-02T04:27:42;8.68;;;3.13;;
41687;SDS011;27371;42.686;23.362;2023-04-02T04:33:16;5.38;;;2.40;;
41687;SDS011;27371;42.686;23.362;2023-04-02T04:35:52;3.88;;;2.38;;
41687;SDS011;27371;42.686;23.362;2023-04-02T04:38:34;3.95;;;2.75;;
41687;SDS011;27371;42.686;23.362;2023-04-02T04:41:13;3.53;;;2.72;;
41687;SDS011;27371;42.686;23.362;2023-04-02T04:46:26;6.85;;;2.70;;
41687;SDS011;27371;42.686;23.362;2023-04-02T04:49:01;7.50;;;3.35;;
41687;SDS011;27371;42.686;23.362;2023-04-02T04:54:12;7.03;;;3.17;;
41687;SDS011;27371;42.686;23.362;2023-04-02T04:56:38;4.78;;;3.00;;
41687;SDS011;27371;42.686;23.362;2023-04-02T04:59:20;6.20;;;2.85;;
41687;SDS011;27371;42.686;23.362;2023-04-02T05:01:54;6.47;;;3.40;;
41687;SDS011;27371;42.686;23.362;2023-04-02T05:04:32;7.18;;;3.00;;
41687;SDS011;27371;42.686;23.362;2023-04-02T05:07:06;4.20;;;2.45;;
41687;SDS011;27371;42.686;23.362;2023-04-02T05:09:37;4.65;;;2.60;;
41687;SDS011;27371;42.686;23.362;2023-04-02T05:15:01;3.83;;;2.47;;
41687;SDS011;27371;42.686;23.362;2023-04-02T05:20:35;4.72;;;2.60;;
41687;SDS011;27371;42.686;23.362;2023-04-02T05:23:25;4.18;;;2.58;;
41687;SDS011;27371;42.686;23.362;2023-04-02T05:31:04;4.75;;;3.25;;
41687;SDS011;27371;42.686;23.362;2023-04-02T05:33:33;6.97;;;2.85;;
41687;SDS011;27371;42.686;23.362;2023-04-02T05:38:34;4.80;;;2.45;;
41687;SDS011;27371;42.686;23.362;2023-04-02T05:41:02;3.58;;;2.17;;
41687;SDS011;27371;42.686;23.362;2023-04-02T05:43:38;4.80;;;2.30;;
41687;SDS011;27371;42.686;23.362;2023-04-02T05:46:16;4.40;;;2.53;;
41687;SDS011;27371;42.686;23.362;2023-04-02T05:48:46;4.75;;;2.63;;
41687;SDS011;27371;42.686;23.362;2023-04-02T05:51:22;3.67;;;2.70;;
41687;SDS011;27371;42.686;23.362;2023-04-02T05:53:59;8.00;;;2.88;;
41687;SDS011;27371;42.686;23.362;2023-04-02T05:56:33;6.00;;;2.85;;
41687;SDS011;27371;42.686;23.362;2023-04-02T05:59:15;4.43;;;2.53;;
41687;SDS011;27371;42.686;23.362;2023-04-02T06:14:38;5.93;;;2.90;;
41687;SDS011;27371;42.686;23.362;2023-04-02T06:17:03;6.78;;;3.00;;
41687;SDS011;27371;42.686;23.362;2023-04-02T06:19:34;6.22;;;2.75;;
41687;SDS011;27371;42.686;23.362;2023-04-02T06:22:14;7.97;;;3.05;;
41687;SDS011;27371;42.686;23.362;2023-04-02T06:25:16;4.97;;;2.45;;
41687;SDS011;27371;42.686;23.362;2023-04-02T06:27:43;6.75;;;2.30;;
41687;SDS011;27371;42.686;23.362;2023-04-02T06:30:18;3.92;;;2.20;;
41687;SDS011;27371;42.686;23.362;2023-04-02T06:32:56;4.75;;;2.28;;
41687;SDS011;27371;42.686;23.362;2023-04-02T06:35:22;3.88;;;1.80;;
41687;SDS011;27371;42.686;23.362;2023-04-02T06:37:48;8.77;;;2.63;;
41687;SDS011;27371;42.686;23.362;2023-04-02T06:40:31;5.22;;;2.85;;
41687;SDS011;27371;42.686;23.362;2023-04-02T06:45:46;5.15;;;2.65;;
41687;SDS011;27371;42.686;23.362;2023-04-02T06:48:17;4.07;;;2.55;;
41687;SDS011;27371;42.686;23.362;2023-04-02T06:50:49;4.03;;;2.17;;
41687;SDS011;27371;42.686;23.362;2023-04-02T06:58:46;7.75;;;4.18;;
41687;SDS011;27371;42.686;23.362;2023-04-02T07:01:14;5.80;;;2.17;;
41687;SDS011;27371;42.686;23.362;2023-04-02T07:03:43;5.65;;;2.50;;
41687;SDS011;27371;42.686;23.362;2023-04-02T07:06:16;5.72;;;1.80;;
41687;SDS011;27371;42.686;23.362;2023-04-02T07:08:43;4.40;;;2.33;;
41687;SDS011;27371;42.686;23.362;2023-04-02T07:11:13;9.73;;;2.70;;
41687;SDS011;27371;42.686;23.362;2023-04-02T07:13:41;7.10;;;2.50;;
41687;SDS011;27371;42.686;23.362;2023-04-02T07:16:12;4.82;;;3.25;;
41687;SDS011;27371;42.686;23.362;2023-04-02T07:18:40;5.22;;;2.30;;
41687;SDS011;27371;42.686;23.362;2023-04-02T07:21:06;7.35;;;2.50;;
41687;SDS011;27371;42.686;23.362;2023-04-02T07:23:31;5.05;;;2.35;;
41687;SDS011;27371;42.686;23.362;2023-04-02T07:25:57;7.22;;;2.33;;
41687;SDS011;27371;42.686;23.362;2023-04-02T07:28:23;11.75;;;2.80;;
41687;SDS011;27371;42.686;23.362;2023-04-02T07:30:49;6.05;;;2.60;;
41687;SDS011;27371;42.686;23.362;2023-04-02T07:33:17;8.25;;;4.40;;
41687;SDS011;27371;42.686;23.362;2023-04-02T07:35:44;9.38;;;2.65;;
41687;SDS011;27371;42.686;23.362;2023-04-02T07:38:10;3.22;;;1.67;;
41687;SDS011;27371;42.686;23.362;2023-04-02T07:40:36;4.93;;;1.95;;
41687;SDS011;27371;42.686;23.362;2023-04-02T07:43:02;11.18;;;4.13;;
41687;SDS011;27371;42.686;23.362;2023-04-02T07:45:28;2.38;;;1.20;;
41687;SDS011;27371;42.686;23.362;2023-04-02T07:47:53;2.90;;;1.10;;
41687;SDS011;27371;42.686;23.362;2023-04-02T07:50:19;2.28;;;1.13;;
41687;SDS011;27371;42.686;23.362;2023-04-02T07:52:44;2.60;;;1.15;;
41687;SDS011;27371;42.686;23.362;2023-04-02T07:55:11;4.97;;;1.20;;
41687;SDS011;27371;42.686;23.362;2023-04-02T07:57:59;2.75;;;1.48;;
41687;SDS011;27371;42.686;23.362;2023-04-02T08:00:25;3.38;;;0.90;;
41687;SDS011;27371;42.686;23.362;2023-04-02T08:02:52;2.90;;;0.75;;
41687;SDS011;27371;42.686;23.362;2023-04-02T08:05:18;2.28;;;1.08;;
41687;SDS011;27371;42.686;23.362;2023-04-02T08:07:51;1.63;;;0.52;;
41687;SDS011;27371;42.686;23.362;2023-04-02T08:10:20;1.73;;;0.60;;
41687;SDS011;27371;42.686;23.362;2023-04-02T08:12:46;1.30;;;0.50;;
41687;SDS011;27371;42.686;23.362;2023-04-02T08:15:12;4.00;;;1.75;;
41687;SDS011;27371;42.686;23.362;2023-04-02T08:17:39;1.15;;;0.60;;
41687;SDS011;27371;42.686;23.362;2023-04-02T08:20:04;3.38;;;1.23;;
41687;SDS011;27371;42.686;23.362;2023-04-02T08:22:32;1.50;;;0.57;;
41687;SDS011;27371;42.686;23.362;2023-04-02T08:24:57;1.40;;;0.43;;
41687;SDS011;27371;42.686;23.362;2023-04-02T08:27:23;1.85;;;1.20;;
41687;SDS011;27371;42.686;23.362;2023-04-02T08:29:49;3.75;;;0.80;;
41687;SDS011;27371;42.686;23.362;2023-04-02T08:32:15;2.30;;;0.40;;
41687;SDS011;27371;42.686;23.362;2023-04-02T08:34:41;4.82;;;0.47;;
41687;SDS011;27371;42.686;23.362;2023-04-02T08:37:08;1.63;;;0.63;;
41687;SDS011;27371;42.686;23.362;2023-04-02T08:39:36;2.78;;;0.90;;
41687;SDS011;27371;42.686;23.362;2023-04-02T08:42:03;2.45;;;1.08;;
41687;SDS011;27371;42.686;23.362;2023-04-02T08:44:44;2.40;;;0.55;;
41687;SDS011;27371;42.686;23.362;2023-04-02T08:47:19;1.13;;;0.75;;
41687;SDS011;27371;42.686;23.362;2023-04-02T08:49:53;1.52;;;0.70;;
41687;SDS011;27371;42.686;23.362;2023-04-02T08:52:27;5.43;;;1.00;;
41687;SDS011;27371;42.686;23.362;2023-04-02T08:54:56;2.05;;;0.65;;
41687;SDS011;27371;42.686;23.362;2023-04-02T09:03:26;1.45;;;0.70;;
41687;SDS011;27371;42.686;23.362;2023-04-02T09:05:56;2.40;;;0.65;;
41687;SDS011;27371;42.686;23.362;2023-04-02T09:08:24;1.25;;;0.40;;
41687;SDS011;27371;42.686;23.362;2023-04-02T09:13:32;1.88;;;0.52;;
41687;SDS011;27371;42.686;23.362;2023-04-02T09:18:30;6.47;;;1.80;;
41687;SDS011;27371;42.686;23.362;2023-04-02T09:20:56;4.70;;;0.50;;
41687;SDS011;27371;42.686;23.362;2023-04-02T09:23:22;1.52;;;0.50;;
41687;SDS011;27371;42.686;23.362;2023-04-02T09:25:50;2.78;;;0.30;;
41687;SDS011;27371;42.686;23.362;2023-04-02T09:28:17;4.15;;;0.82;;
41687;SDS011;27371;42.686;23.362;2023-04-02T09:33:46;1.52;;;0.50;;
41687;SDS011;27371;42.686;23.362;2023-04-02T09:36:33;3.15;;;0.60;;
41687;SDS011;27371;42.686;23.362;2023-04-02T09:39:20;0.95;;;0.50;;
41687;SDS011;27371;42.686;23.362;2023-04-02T09:41:48;3.20;;;0.80;;
41687;SDS011;27371;42.686;23.362;2023-04-02T09:44:19;1.48;;;0.60;;
41687;SDS011;27371;42.686;23.362;2023-04-02T09:46:53;2.33;;;0.50;;
41687;SDS011;27371;42.686;23.362;2023-04-02T09:49:24;1.40;;;0.63;;
41687;SDS011;27371;42.686;23.362;2023-04-02T09:54:36;2.65;;;0.90;;
41687;SDS011;27371;42.686;23.362;2023-04-02T09:57:16;2.00;;;0.70;;
41687;SDS011;27371;42.686;23.362;2023-04-02T09:59:42;3.85;;;1.30;;
41687;SDS011;27371;42.686;23.362;2023-04-02T10:02:21;2.58;;;1.00;;
41687;SDS011;27371;42.686;23.362;2023-04-02T10:04:49;1.70;;;0.80;;
41687;SDS011;27371;42.686;23.362;2023-04-02T10:10:16;1.13;;;0.50;;
41687;SDS011;27371;42.686;23.362;2023-04-02T10:13:07;0.80;;;0.30;;
41687;SDS011;27371;42.686;23.362;2023-04-02T10:15:47;1.45;;;0.30;;
41687;SDS011;27371;42.686;23.362;2023-04-02T10:21:12;0.57;;;0.30;;
41687;SDS011;27371;42.686;23.362;2023-04-02T10:23:45;0.70;;;0.40;;
41687;SDS011;27371;42.686;23.362;2023-04-02T10:31:25;1.30;;;0.63;;
41687;SDS011;27371;42.686;23.362;2023-04-02T10:33:59;1.98;;;1.08;;
41687;SDS011;27371;42.686;23.362;2023-04-02T10:36:48;0.50;;;0.32;;
41687;SDS011;27371;42.686;23.362;2023-04-02T10:39:26;0.85;;;0.50;;
41687;SDS011;27371;42.686;23.362;2023-04-02T10:47:58;8.20;;;3.88;;
41687;SDS011;27371;42.686;23.362;2023-04-02T10:53:13;1.38;;;0.50;;
41687;SDS011;27371;42.686;23.362;2023-04-02T10:55:42;3.13;;;0.47;;
41687;SDS011;27371;42.686;23.362;2023-04-02T10:58:30;2.53;;;0.47;;
41687;SDS011;27371;42.686;23.362;2023-04-02T11:01:06;1.17;;;0.40;;
41687;SDS011;27371;42.686;23.362;2023-04-02T11:03:47;1.55;;;0.40;;
41687;SDS011;27371;42.686;23.362;2023-04-02T11:06:20;0.65;;;0.30;;
41687;SDS011;27371;42.686;23.362;2023-04-02T11:08:49;0.50;;;0.20;;
41687;SDS011;27371;42.686;23.362;2023-04-02T11:11:22;1.52;;;0.65;;
41687;SDS011;27371;42.686;23.362;2023-04-02T11:16:23;0.82;;;0.40;;
41687;SDS011;27371;42.686;23.362;2023-04-02T11:21:37;2.75;;;0.80;;
41687;SDS011;27371;42.686;23.362;2023-04-02T11:32:30;1.55;;;0.57;;
41687;SDS011;27371;42.686;23.362;2023-04-02T11:35:22;1.17;;;0.38;;
41687;SDS011;27371;42.686;23.362;2023-04-02T11:37:57;1.75;;;0.45;;
41687;SDS011;27371;42.686;23.362;2023-04-02T11:40:41;1.63;;;0.40;;
41687;SDS011;27371;42.686;23.362;2023-04-02T11:48:42;0.80;;;0.30;;
41687;SDS011;27371;42.686;23.362;2023-04-02T11:53:45;0.60;;;0.40;;
41687;SDS011;27371;42.686;23.362;2023-04-02T11:56:20;1.85;;;0.50;;
41687;SDS011;27371;42.686;23.362;2023-04-02T11:59:02;0.70;;;0.47;;
41687;SDS011;27371;42.686;23.362;2023-04-02T12:04:33;2.60;;;1.02;;
41687;SDS011;27371;42.686;23.362;2023-04-02T12:10:02;2.00;;;0.75;;
41687;SDS011;27371;42.686;23.362;2023-04-02T12:12:35;2.22;;;0.95;;
41687;SDS011;27371;42.686;23.362;2023-04-02T12:15:03;3.83;;;1.80;;
41687;SDS011;27371;42.686;23.362;2023-04-02T12:17:33;2.20;;;0.98;;
41687;SDS011;27371;42.686;23.362;2023-04-02T12:20:30;2.35;;;0.80;;
41687;SDS011;27371;42.686;23.362;2023-04-02T12:22:55;1.27;;;0.80;;
41687;SDS011;27371;42.686;23.362;2023-04-02T12:25:29;1.35;;;0.68;;
41687;SDS011;27371;42.686;23.362;2023-04-02T12:28:05;3.67;;;0.70;;
41687;SDS011;27371;42.686;23.362;2023-04-02T12:30:45;1.80;;;1.00;;
41687;SDS011;27371;42.686;23.362;2023-04-02T12:35:47;1.58;;;0.22;;
41687;SDS011;27371;42.686;23.362;2023-04-02T12:38:20;0.75;;;0.30;;
41687;SDS011;27371;42.686;23.362;2023-04-02T12:41:00;0.65;;;0.30;;
41687;SDS011;27371;42.686;23.362;2023-04-02T12:43:32;1.05;;;0.28;;
41687;SDS011;27371;42.686;23.362;2023-04-02T12:46:01;1.33;;;0.30;;
41687;SDS011;27371;42.686;23.362;2023-04-02T12:48:30;1.73;;;0.40;;
41687;SDS011;27371;42.686;23.362;2023-04-02T12:50:56;1.85;;;0.47;;
41687;SDS011;27371;42.686;23.362;2023-04-02T12:53:24;0.98;;;0.55;;
41687;SDS011;27371;42.686;23.362;2023-04-02T12:55:53;0.75;;;0.30;;
41687;SDS011;27371;42.686;23.362;2023-04-02T13:04:04;1.35;;;0.57;;
41687;SDS011;27371;42.686;23.362;2023-04-02T13:06:45;0.52;;;0.30;;
41687;SDS011;27371;42.686;23.362;2023-04-02T13:09:25;1.58;;;0.30;;
41687;SDS011;27371;42.686;23.362;2023-04-02T13:11:54;1.58;;;0.60;;
41687;SDS011;27371;42.686;23.362;2023-04-02T13:14:20;0.90;;;0.40;;
41687;SDS011;27371;42.686;23.362;2023-04-02T13:16:48;0.88;;;0.38;;
41687;SDS011;27371;42.686;23.362;2023-04-02T13:21:56;0.60;;;0.40;;
41687;SDS011;27371;42.686;23.362;2023-04-02T13:24:28;0.80;;;0.30;;
41687;SDS011;27371;42.686;23.362;2023-04-02T13:26:56;0.90;;;0.43;;
41687;SDS011;27371;42.686;23.362;2023-04-02T13:32:00;1.30;;;0.63;;
41687;SDS011;27371;42.686;23.362;2023-04-02T13:34:30;1.10;;;0.20;;
41687;SDS011;27371;42.686;23.362;2023-04-02T13:36:56;0.50;;;0.30;;
41687;SDS011;27371;42.686;23.362;2023-04-02T13:39:22;2.10;;;0.70;;
41687;SDS011;27371;42.686;23.362;2023-04-02T13:41:59;4.07;;;0.55;;
41687;SDS011;27371;42.686;23.362;2023-04-02T13:44:27;0.88;;;0.40;;
41687;SDS011;27371;42.686;23.362;2023-04-02T13:46:54;5.75;;;2.80;;
41687;SDS011;27371;42.686;23.362;2023-04-02T13:49:21;2.53;;;0.60;;
41687;SDS011;27371;42.686;23.362;2023-04-02T13:51:49;1.15;;;0.70;;
41687;SDS011;27371;42.686;23.362;2023-04-02T13:54:18;1.50;;;0.75;;
41687;SDS011;27371;42.686;23.362;2023-04-02T13:56:49;1.50;;;0.60;;
41687;SDS011;27371;42.686;23.362;2023-04-02T13:59:14;0.60;;;0.40;;
41687;SDS011;27371;42.686;23.362;2023-04-02T14:01:40;0.88;;;0.35;;
41687;SDS011;27371;42.686;23.362;2023-04-02T14:04:09;1.08;;;0.38;;
41687;SDS011;27371;42.686;23.362;2023-04-02T14:12:09;1.25;;;0.40;;
41687;SDS011;27371;42.686;23.362;2023-04-02T14:25:37;1.10;;;0.30;;
41687;SDS011;27371;42.686;23.362;2023-04-02T14:39:07;0.85;;;0.50;;
41687;SDS011;27371;42.686;23.362;2023-04-02T14:41:57;1.63;;;0.20;;
41687;SDS011;27371;42.686;23.362;2023-04-02T14:44:31;0.73;;;0.30;;
41687;SDS011;27371;42.686;23.362;2023-04-02T14:50:25;0.95;;;0.40;;
41687;SDS011;27371;42.686;23.362;2023-04-02T14:53:06;0.82;;;0.30;;
41687;SDS011;27371;42.686;23.362;2023-04-02T14:55:37;1.13;;;0.40;;
41687;SDS011;27371;42.686;23.362;2023-04-02T14:58:14;1.00;;;0.50;;
41687;SDS011;27371;42.686;23.362;2023-04-02T15:00:44;0.40;;;0.30;;
41687;SDS011;27371;42.686;23.362;2023-04-02T15:03:20;1.30;;;0.60;;
41687;SDS011;27371;42.686;23.362;2023-04-02T15:06:04;3.55;;;0.80;;
41687;SDS011;27371;42.686;23.362;2023-04-02T15:13:38;0.77;;;0.40;;
41687;SDS011;27371;42.686;23.362;2023-04-02T15:16:15;1.02;;;0.50;;
41687;SDS011;27371;42.686;23.362;2023-04-02T15:18:50;1.80;;;0.98;;
41687;SDS011;27371;42.686;23.362;2023-04-02T15:31:46;2.22;;;0.43;;
41687;SDS011;27371;42.686;23.362;2023-04-02T15:34:20;2.85;;;0.50;;
41687;SDS011;27371;42.686;23.362;2023-04-02T15:37:00;1.30;;;0.70;;
41687;SDS011;27371;42.686;23.362;2023-04-02T15:42:23;1.38;;;0.80;;
41687;SDS011;27371;42.686;23.362;2023-04-02T15:53:32;2.85;;;0.60;;
41687;SDS011;27371;42.686;23.362;2023-04-02T15:56:15;0.75;;;0.50;;
41687;SDS011;27371;42.686;23.362;2023-04-02T15:59:05;1.17;;;0.65;;
41687;SDS011;27371;42.686;23.362;2023-04-02T16:12:28;1.45;;;0.52;;
41687;SDS011;27371;42.686;23.362;2023-04-02T16:14:58;0.75;;;0.40;;
41687;SDS011;27371;42.686;23.362;2023-04-02T16:17:35;1.02;;;0.70;;
41687;SDS011;27371;42.686;23.362;2023-04-02T16:20:13;2.42;;;0.70;;
41687;SDS011;27371;42.686;23.362;2023-04-02T16:22:43;0.95;;;0.50;;
41687;SDS011;27371;42.686;23.362;2023-04-02T16:25:15;1.35;;;0.40;;
41687;SDS011;27371;42.686;23.362;2023-04-02T16:27:51;2.55;;;0.50;;
41687;SDS011;27371;42.686;23.362;2023-04-02T16:33:29;5.13;;;1.80;;
41687;SDS011;27371;42.686;23.362;2023-04-02T16:46:57;2.65;;;1.35;;
41687;SDS011;27371;42.686;23.362;2023-04-02T16:54:57;3.10;;;0.90;;
41687;SDS011;27371;42.686;23.362;2023-04-02T16:57:47;3.10;;;1.15;;
41687;SDS011;27371;42.686;23.362;2023-04-02T17:00:26;2.88;;;1.08;;
41687;SDS011;27371;42.686;23.362;2023-04-02T17:03:04;4.43;;;1.15;;
41687;SDS011;27371;42.686;23.362;2023-04-02T17:05:39;2.58;;;1.23;;
41687;SDS011;27371;42.686;23.362;2023-04-02T17:08:22;6.68;;;1.55;;
41687;SDS011;27371;42.686;23.362;2023-04-02T17:13:36;3.80;;;1.88;;
41687;SDS011;27371;42.686;23.362;2023-04-02T17:18:38;7.15;;;2.50;;
41687;SDS011;27371;42.686;23.362;2023-04-02T17:21:09;4.50;;;2.00;;
41687;SDS011;27371;42.686;23.362;2023-04-02T17:23:53;5.35;;;2.15;;
41687;SDS011;27371;42.686;23.362;2023-04-02T17:26:42;3.72;;;1.95;;
41687;SDS011;27371;42.686;23.362;2023-04-02T17:32:26;2.78;;;1.80;;
41687;SDS011;27371;42.686;23.362;2023-04-02T17:47:00;6.50;;;2.67;;
41687;SDS011;27371;42.686;23.362;2023-04-02T17:49:38;6.57;;;2.55;;
41687;SDS011;27371;42.686;23.362;2023-04-02T18:06:03;8.25;;;2.90;;
41687;SDS011;27371;42.686;23.362;2023-04-02T18:08:53;6.32;;;2.90;;
41687;SDS011;27371;42.686;23.362;2023-04-02T18:17:05;5.95;;;2.90;;
41687;SDS011;27371;42.686;23.362;2023-04-02T18:27:53;6.43;;;3.58;;
41687;SDS011;27371;42.686;23.362;2023-04-02T18:30:38;6.95;;;2.97;;
41687;SDS011;27371;42.686;23.362;2023-04-02T18:33:15;9.57;;;3.55;;
41687;SDS011;27371;42.686;23.362;2023-04-02T18:35:58;6.15;;;2.85;;
41687;SDS011;27371;42.686;23.362;2023-04-02T18:38:48;7.38;;;3.50;;
41687;SDS011;27371;42.686;23.362;2023-04-02T18:41:19;7.45;;;4.55;;
41687;SDS011;27371;42.686;23.362;2023-04-02T18:44:03;8.43;;;3.20;;
41687;SDS011;27371;42.686;23.362;2023-04-02T18:46:51;11.38;;;3.78;;
41687;SDS011;27371;42.686;23.362;2023-04-02T18:52:12;11.10;;;5.90;;
41687;SDS011;27371;42.686;23.362;2023-04-02T18:57:09;7.53;;;3.55;;
41687;SDS011;27371;42.686;23.362;2023-04-02T18:59:41;8.55;;;3.42;;
41687;SDS011;27371;42.686;23.362;2023-04-02T19:05:12;8.20;;;3.38;;
41687;SDS011;27371;42.686;23.362;2023-04-02T19:07:44;5.63;;;3.38;;
41687;SDS011;27371;42.686;23.362;2023-04-02T19:10:23;7.93;;;3.40;;
41687;SDS011;27371;42.686;23.362;2023-04-02T19:12:52;5.78;;;3.05;;
41687;SDS011;27371;42.686;23.362;2023-04-02T19:15:18;6.30;;;3.20;;
41687;SDS011;27371;42.686;23.362;2023-04-02T19:18:34;6.32;;;2.58;;
41687;SDS011;27371;42.686;23.362;2023-04-02T19:20:40;6.97;;;2.40;;
41687;SDS011;27371;42.686;23.362;2023-04-02T19:26:19;6.78;;;2.85;;
41687;SDS011;27371;42.686;23.362;2023-04-02T19:40:53;8.77;;;2.85;;
41687;SDS011;27371;42.686;23.362;2023-04-02T19:43:23;5.93;;;2.60;;
41687;SDS011;27371;42.686;23.362;2023-04-02T19:45:48;7.15;;;2.72;;
41687;SDS011;27371;42.686;23.362;2023-04-02T19:48:16;6.90;;;2.30;;
41687;SDS011;27371;42.686;23.362;2023-04-02T19:50:44;5.95;;;2.38;;
41687;SDS011;27371;42.686;23.362;2023-04-02T19:53:11;7.35;;;2.97;;
41687;SDS011;27371;42.686;23.362;2023-04-02T19:55:39;11.65;;;5.90;;
41687;SDS011;27371;42.686;23.362;2023-04-02T19:58:05;17.67;;;7.10;;
41687;SDS011;27371;42.686;23.362;2023-04-02T20:00:31;18.80;;;7.82;;
41687;SDS011;27371;42.686;23.362;2023-04-02T20:02:57;10.95;;;3.90;;
41687;SDS011;27371;42.686;23.362;2023-04-02T20:05:22;7.20;;;3.38;;
41687;SDS011;27371;42.686;23.362;2023-04-02T20:07:48;7.72;;;2.63;;
41687;SDS011;27371;42.686;23.362;2023-04-02T20:10:13;5.32;;;2.58;;
41687;SDS011;27371;42.686;23.362;2023-04-02T20:12:39;6.72;;;1.85;;
41687;SDS011;27371;42.686;23.362;2023-04-02T20:15:05;5.30;;;2.50;;
41687;SDS011;27371;42.686;23.362;2023-04-02T20:17:31;8.68;;;3.17;;
41687;SDS011;27371;42.686;23.362;2023-04-02T20:19:57;3.70;;;2.00;;
41687;SDS011;27371;42.686;23.362;2023-04-02T20:22:22;8.57;;;2.42;;
41687;SDS011;27371;42.686;23.362;2023-04-02T20:24:48;4.85;;;2.80;;
41687;SDS011;27371;42.686;23.362;2023-04-02T20:27:13;4.43;;;2.53;;
41687;SDS011;27371;42.686;23.362;2023-04-02T20:29:39;12.23;;;3.20;;
41687;SDS011;27371;42.686;23.362;2023-04-02T20:32:07;6.22;;;2.70;;
41687;SDS011;27371;42.686;23.362;2023-04-02T20:34:33;5.82;;;2.70;;
41687;SDS011;27371;42.686;23.362;2023-04-02T20:36:59;4.85;;;2.22;;
41687;SDS011;27371;42.686;23.362;2023-04-02T20:39:24;5.88;;;2.30;;